createdAt,value
2023-02-03T00:01:06.101Z,40.50
2023-02-03T00:03:33.772Z,41.00
2023-02-03T00:06:03.877Z,40.52
2023-02-03T00:08:32.100Z,41.20
2023-02-03T00:11:00.434Z,40.55
2023-02-03T00:13:28.022Z,40.73
2023-02-03T00:15:55.512Z,40.47
2023-02-03T00:18:23.040Z,40.57
2023-02-03T00:20:50.473Z,40.28
2023-02-03T00:23:18.036Z,40.74
2023-02-03T00:25:45.672Z,41.01
2023-02-03T00:28:13.193Z,40.68
2023-02-03T00:30:40.895Z,40.40
2023-02-03T00:33:08.470Z,40.56
2023-02-03T00:35:39.848Z,40.53
2023-02-03T00:38:07.411Z,40.82
2023-02-03T00:40:35.463Z,40.64
2023-02-03T00:43:03.019Z,40.67
2023-02-03T00:45:30.646Z,40.40
2023-02-03T00:47:58.283Z,40.15
2023-02-03T00:50:26.023Z,40.05
2023-02-03T00:52:53.611Z,39.83
2023-02-03T00:55:21.140Z,40.42
2023-02-03T00:57:48.689Z,39.47
2023-02-03T01:00:16.733Z,39.53
2023-02-03T01:02:44.403Z,39.25
2023-02-03T01:05:12.455Z,39.20
2023-02-03T01:07:40.019Z,39.52
2023-02-03T01:10:08.047Z,39.54
2023-02-03T01:12:35.609Z,39.15
2023-02-03T01:15:03.138Z,39.53
2023-02-03T01:17:31.735Z,39.19
2023-02-03T01:19:59.460Z,39.96
2023-02-03T01:22:32.338Z,40.31
2023-02-03T01:24:59.856Z,39.92
2023-02-03T01:27:27.460Z,40.13
2023-02-03T01:29:57.014Z,40.37
2023-02-03T01:32:24.640Z,40.38
2023-02-03T01:34:52.147Z,40.50
2023-02-03T01:37:19.724Z,40.38
2023-02-03T01:39:48.194Z,40.53
2023-02-03T01:42:34.534Z,41.04
2023-02-03T01:45:02.266Z,40.59
2023-02-03T01:47:36.918Z,40.63
2023-02-03T01:50:14.216Z,41.19
2023-02-03T01:52:44.388Z,40.32
2023-02-03T01:55:17.779Z,40.23
2023-02-03T01:57:54.541Z,40.67
2023-02-03T02:00:22.443Z,39.96
2023-02-03T02:02:50.827Z,40.51
2023-02-03T02:05:48.713Z,41.21
2023-02-03T02:08:18.703Z,40.24
2023-02-03T02:10:46.393Z,40.08
2023-02-03T02:13:16.081Z,39.60
2023-02-03T02:16:11.291Z,40.89
2023-02-03T02:18:42.269Z,40.17
2023-02-03T02:21:31.400Z,39.28
2023-02-03T02:24:23.330Z,40.31
2023-02-03T02:27:03.070Z,40.23
2023-02-03T02:30:05.932Z,40.85
2023-02-03T02:32:48.979Z,39.66
2023-02-03T02:35:21.107Z,40.03
2023-02-03T02:38:13.115Z,40.52
2023-02-03T02:41:00.738Z,40.00
2023-02-03T02:43:28.361Z,39.12
2023-02-03T02:46:31.230Z,39.65
2023-02-03T02:49:21.988Z,40.74
2023-02-03T02:51:53.663Z,39.71
2023-02-03T02:54:25.706Z,40.02
2023-02-03T02:56:58.318Z,39.46
2023-02-03T02:59:28.245Z,39.68
2023-02-03T03:01:55.902Z,39.76
2023-02-03T03:04:26.913Z,39.98
2023-02-03T03:07:08.814Z,39.64
2023-02-03T03:09:43.284Z,39.80
2023-02-03T03:12:16.774Z,40.52
2023-02-03T03:14:49.517Z,39.35
2023-02-03T03:17:24.538Z,39.89
2023-02-03T03:19:56.610Z,39.80
2023-02-03T03:22:37.132Z,39.66
2023-02-03T03:25:15.191Z,39.10
2023-02-03T03:28:05.347Z,38.76
2023-02-03T03:30:38.165Z,39.16
2023-02-03T03:33:08.101Z,39.00
2023-02-03T03:35:59.699Z,39.22
2023-02-03T03:38:36.783Z,39.05
2023-02-03T03:41:16.204Z,39.47
2023-02-03T03:43:47.605Z,38.63
2023-02-03T03:46:22.145Z,39.08
2023-02-03T03:49:01.186Z,38.61
2023-02-03T03:51:37.507Z,38.59
2023-02-03T03:54:09.757Z,38.87
2023-02-03T03:56:45.472Z,38.78
2023-02-03T03:59:17.529Z,39.23
2023-02-03T04:01:45.859Z,38.84
2023-02-03T04:04:15.334Z,38.63
2023-02-03T04:06:42.917Z,38.98
2023-02-03T04:09:10.607Z,38.84
2023-02-03T04:11:56.378Z,39.00
2023-02-03T04:14:23.895Z,38.71
2023-02-03T04:16:51.447Z,38.39
2023-02-03T04:19:18.829Z,38.41
2023-02-03T04:21:46.374Z,37.45
2023-02-03T04:24:14.457Z,37.35
2023-02-03T04:26:41.965Z,36.91
2023-02-03T04:29:09.834Z,37.51
2023-02-03T04:31:38.894Z,37.69
2023-02-03T04:34:06.854Z,37.51
2023-02-03T04:36:34.529Z,38.09
2023-02-03T04:39:02.087Z,37.48
2023-02-03T04:41:29.820Z,37.83
2023-02-03T04:43:57.545Z,37.56
2023-02-03T04:46:25.066Z,36.94
2023-02-03T04:48:52.560Z,36.57
2023-02-03T04:51:22.245Z,37.18
2023-02-03T04:53:52.451Z,37.67
2023-02-03T04:56:19.947Z,37.13
2023-02-03T04:58:47.477Z,36.32
2023-02-03T05:01:14.985Z,37.05
2023-02-03T05:03:42.622Z,37.34
2023-02-03T05:06:10.204Z,37.28
2023-02-03T05:08:37.708Z,37.03
2023-02-03T05:11:06.651Z,37.01
2023-02-03T05:13:34.500Z,37.17
2023-02-03T05:16:02.176Z,36.92
2023-02-03T05:18:29.828Z,37.54
2023-02-03T05:20:57.487Z,36.55
2023-02-03T05:23:25.137Z,37.57
2023-02-03T05:25:52.657Z,37.51
2023-02-03T05:28:20.273Z,37.55
2023-02-03T05:30:47.794Z,37.10
2023-02-03T05:33:15.703Z,37.49
2023-02-03T05:35:43.433Z,37.27
2023-02-03T05:38:10.909Z,36.75
2023-02-03T05:40:57.025Z,37.02
2023-02-03T05:43:24.522Z,37.36
2023-02-03T05:45:52.068Z,37.34
2023-02-03T05:48:19.634Z,37.12
2023-02-03T05:50:47.146Z,36.92
2023-02-03T05:53:14.880Z,36.29
2023-02-03T05:55:42.421Z,36.22
2023-02-03T05:58:10.035Z,35.67
2023-02-03T06:00:37.787Z,35.63
2023-02-03T06:03:05.890Z,35.70
2023-02-03T06:05:35.158Z,35.94
2023-02-03T06:08:02.698Z,36.02
2023-02-03T06:10:30.337Z,35.77
2023-02-03T06:12:57.955Z,35.46
2023-02-03T06:15:25.847Z,35.32
2023-02-03T06:17:53.308Z,34.69
2023-02-03T06:20:21.359Z,34.96
2023-02-03T06:22:48.903Z,34.62
2023-02-03T06:25:16.545Z,34.92
2023-02-03T06:27:44.120Z,33.56
2023-02-03T06:30:12.404Z,34.35
2023-02-03T06:32:39.889Z,33.90
2023-02-03T06:35:07.749Z,32.30
2023-02-03T06:37:38.823Z,31.40
2023-02-03T06:40:06.948Z,33.66
2023-02-03T06:42:34.507Z,34.41
2023-02-03T06:45:02.025Z,34.02
2023-02-03T06:47:31.462Z,33.35
2023-02-03T06:49:58.991Z,33.38
2023-02-03T06:52:26.681Z,32.60
2023-02-03T06:54:54.210Z,34.28
2023-02-03T06:57:21.743Z,35.93
2023-02-03T06:59:49.255Z,35.51
2023-02-03T07:02:17.218Z,35.41
2023-02-03T07:04:45.424Z,35.58
2023-02-03T07:07:13.485Z,34.30
2023-02-03T07:09:41.596Z,33.87
2023-02-03T07:12:10.405Z,32.70
2023-02-03T07:14:39.634Z,32.32
2023-02-03T07:17:09.120Z,31.15
2023-02-03T07:19:36.602Z,30.67
2023-02-03T07:22:05.164Z,29.87
2023-02-03T07:25:18.570Z,29.70
2023-02-03T07:27:52.344Z,28.88
2023-02-03T07:30:20.351Z,28.44
2023-02-03T07:32:51.903Z,27.65
2023-02-03T07:35:20.531Z,27.15
2023-02-03T07:37:48.090Z,26.70
2023-02-03T07:40:25.497Z,26.21
2023-02-03T07:42:56.133Z,26.58
2023-02-03T07:45:25.139Z,26.08
2023-02-03T07:47:52.598Z,25.02
2023-02-03T07:50:20.144Z,25.15
2023-02-03T07:52:47.558Z,24.38
2023-02-03T07:55:15.013Z,24.29
2023-02-03T07:57:46.711Z,23.53
2023-02-03T08:00:16.444Z,23.39
2023-02-03T08:02:44.393Z,23.32
2023-02-03T08:05:13.011Z,23.23
2023-02-03T08:07:41.543Z,22.77
2023-02-03T08:10:13.602Z,22.45
2023-02-03T08:12:46.865Z,22.71
2023-02-03T08:15:15.205Z,22.33
2023-02-03T08:17:43.338Z,22.75
2023-02-03T08:20:13.114Z,22.86
2023-02-03T08:22:40.650Z,22.65
2023-02-03T08:25:09.174Z,22.88
2023-02-03T08:27:36.878Z,22.97
2023-02-03T08:30:04.967Z,23.06
2023-02-03T08:32:34.060Z,23.52
2023-02-03T08:35:01.673Z,23.64
2023-02-03T08:37:32.065Z,23.58
2023-02-03T08:40:00.583Z,23.66
2023-02-03T08:42:28.373Z,23.68
2023-02-03T08:44:56.101Z,24.47
2023-02-03T08:47:23.881Z,24.24
2023-02-03T08:49:51.436Z,24.63
2023-02-03T08:52:19.391Z,24.73
2023-02-03T08:54:47.618Z,24.83
2023-02-03T08:57:15.691Z,24.96
2023-02-03T08:59:44.379Z,25.71
2023-02-03T09:02:16.912Z,24.84
2023-02-03T09:04:45.405Z,24.93
2023-02-03T09:07:15.747Z,25.26
2023-02-03T09:09:43.939Z,25.42
2023-02-03T09:12:13.281Z,25.38
2023-02-03T09:14:43.765Z,26.16
2023-02-03T09:17:13.174Z,26.12
2023-02-03T09:19:40.748Z,26.25
2023-02-03T09:22:08.347Z,26.76
2023-02-03T09:24:36.762Z,26.68
2023-02-03T09:27:04.452Z,27.08
2023-02-03T09:29:34.363Z,26.72
2023-02-03T09:32:07.281Z,26.80
2023-02-03T09:34:34.969Z,27.03
2023-02-03T09:37:02.655Z,27.23
2023-02-03T09:39:30.479Z,27.36
2023-02-03T09:42:09.438Z,27.23
2023-02-03T09:44:55.141Z,27.54
2023-02-03T09:47:29.145Z,27.99
2023-02-03T09:50:02.801Z,27.67
2023-02-03T09:52:42.287Z,28.20
2023-02-03T09:55:54.282Z,28.23
2023-02-03T09:58:26.348Z,28.09
2023-02-03T10:00:58.469Z,28.15
2023-02-03T10:03:46.474Z,28.35
2023-02-03T10:06:32.297Z,29.04
2023-02-03T10:09:18.964Z,28.73
2023-02-03T10:12:05.160Z,28.83
2023-02-03T10:15:03.471Z,29.06
2023-02-03T10:17:36.764Z,28.71
2023-02-03T10:20:22.583Z,29.32
2023-02-03T10:22:57.527Z,28.96
2023-02-03T10:25:28.815Z,29.15
2023-02-03T10:28:01.693Z,29.29
2023-02-03T10:30:38.580Z,29.18
2023-02-03T10:33:18.340Z,29.23
2023-02-03T10:36:15.595Z,29.34
2023-02-03T10:38:45.921Z,29.34
2023-02-03T10:41:15.170Z,29.30
2023-02-03T10:43:48.903Z,29.82
2023-02-03T10:46:20.900Z,29.27
2023-02-03T10:48:52.000Z,29.58
2023-02-03T10:51:21.403Z,29.69
2023-02-03T10:53:55.731Z,29.35
2023-02-03T10:56:31.047Z,29.94
2023-02-03T10:59:00.788Z,29.69
2023-02-03T11:01:44.154Z,29.74
2023-02-03T11:04:28.497Z,30.29
2023-02-03T11:07:06.479Z,29.92
2023-02-03T11:09:37.851Z,29.65
2023-02-03T11:12:17.153Z,30.06
2023-02-03T11:14:54.784Z,30.30
2023-02-03T11:17:27.403Z,29.99
2023-02-03T11:20:07.569Z,29.99
2023-02-03T11:22:38.802Z,29.62
2023-02-03T11:25:24.818Z,30.08
2023-02-03T11:27:56.157Z,29.65
2023-02-03T11:30:27.181Z,29.90
2023-02-03T11:32:55.207Z,29.57
2023-02-03T11:35:29.381Z,29.94
2023-02-03T11:38:03.271Z,30.18
2023-02-03T11:40:34.661Z,29.52
2023-02-03T11:43:06.155Z,29.67
2023-02-03T11:45:43.723Z,29.76
2023-02-03T11:48:11.155Z,29.61
2023-02-03T11:50:54.407Z,29.15
2023-02-03T11:53:56.873Z,29.77
2023-02-03T11:56:52.707Z,29.76
2023-02-03T11:59:43.298Z,29.76
2023-02-03T12:02:48.631Z,29.35
2023-02-03T12:05:28.436Z,30.14
2023-02-03T12:08:10.108Z,30.01
2023-02-03T12:10:51.619Z,29.94
2023-02-03T12:13:21.715Z,29.94
2023-02-03T12:16:22.022Z,30.67
2023-02-03T12:19:11.572Z,30.34
2023-02-03T12:22:29.420Z,30.80
2023-02-03T12:25:18.549Z,29.97
2023-02-03T12:27:57.200Z,30.07
2023-02-03T12:30:47.103Z,30.61
2023-02-03T12:33:28.099Z,30.36
2023-02-03T12:36:04.658Z,30.45
2023-02-03T12:38:44.141Z,30.65
2023-02-03T12:41:21.145Z,30.73
2023-02-03T12:43:52.920Z,30.51
2023-02-03T12:46:32.627Z,30.99
2023-02-03T12:49:12.373Z,31.17
2023-02-03T12:51:47.088Z,30.95
2023-02-03T12:54:26.101Z,32.17
2023-02-03T12:57:01.263Z,32.29
2023-02-03T12:59:33.159Z,32.56
2023-02-03T13:02:18.278Z,32.67
2023-02-03T13:04:56.736Z,32.81
2023-02-03T13:07:30.222Z,32.81
2023-02-03T13:10:04.133Z,32.34
2023-02-03T13:12:36.493Z,31.81
2023-02-03T13:15:28.523Z,32.58
2023-02-03T13:18:05.562Z,33.05
2023-02-03T13:20:39.373Z,33.48
2023-02-03T13:23:11.678Z,32.48
2023-02-03T13:25:54.179Z,33.62
2023-02-03T13:28:33.626Z,34.05
2023-02-03T13:31:37.200Z,34.21
2023-02-03T13:34:29.285Z,33.78
2023-02-03T13:37:13.243Z,33.87
2023-02-03T13:39:54.900Z,34.23
2023-02-03T13:42:22.894Z,33.92
2023-02-03T13:45:13.574Z,33.71
2023-02-03T13:47:48.496Z,33.51
2023-02-03T13:50:30.041Z,33.08
2023-02-03T13:53:03.087Z,33.10
2023-02-03T13:55:39.553Z,32.58
2023-02-03T13:58:29.233Z,32.80
2023-02-03T14:00:56.889Z,32.51
2023-02-03T14:03:27.437Z,32.51
2023-02-03T14:06:01.318Z,33.11
2023-02-03T14:08:28.769Z,32.29
2023-02-03T14:11:33.692Z,32.68
2023-02-03T14:14:10.308Z,32.96
2023-02-03T14:16:42.226Z,32.89
2023-02-03T14:19:33.596Z,32.93
2023-02-03T14:22:18.068Z,33.27
2023-02-03T14:24:50.011Z,33.14
2023-02-03T14:27:29.334Z,33.57
2023-02-03T14:30:19.900Z,34.07
2023-02-03T14:32:58.445Z,33.50
2023-02-03T14:35:37.913Z,33.52
2023-02-03T14:38:14.966Z,33.92
2023-02-03T14:40:56.017Z,33.83
2023-02-03T14:43:50.559Z,32.79
2023-02-03T14:46:54.904Z,33.28
2023-02-03T14:49:51.774Z,34.06
2023-02-03T14:53:23.700Z,33.60
2023-02-03T14:56:17.278Z,33.81
2023-02-03T14:59:02.516Z,33.23
2023-02-03T15:01:36.252Z,33.37
2023-02-03T15:04:12.897Z,33.96
2023-02-03T15:06:46.418Z,34.00
2023-02-03T15:09:23.446Z,33.68
2023-02-03T15:11:51.273Z,33.96
2023-02-03T15:14:25.313Z,34.54
2023-02-03T15:17:01.736Z,34.63
2023-02-03T15:19:49.622Z,34.96
2023-02-03T15:22:26.684Z,34.63
2023-02-03T15:24:58.187Z,35.53
2023-02-03T15:27:28.359Z,35.19
2023-02-03T15:29:59.604Z,35.16
2023-02-03T15:32:30.642Z,34.91
2023-02-03T15:34:59.486Z,35.09
2023-02-03T15:37:37.744Z,35.50
2023-02-03T15:40:16.798Z,35.18
2023-02-03T15:43:05.897Z,35.13
2023-02-03T15:45:35.720Z,35.88
2023-02-03T15:48:37.172Z,35.14
2023-02-03T15:51:12.217Z,34.79
2023-02-03T15:54:01.479Z,35.60
2023-02-03T15:56:44.779Z,35.44
2023-02-03T15:59:35.045Z,35.55
2023-02-03T16:02:27.375Z,35.95
2023-02-03T16:04:55.426Z,35.70
2023-02-03T16:07:29.593Z,36.20
2023-02-03T16:09:58.764Z,35.83
2023-02-03T16:12:28.894Z,36.28
2023-02-03T16:14:57.928Z,36.46
2023-02-03T16:17:33.353Z,36.36
2023-02-03T16:20:13.044Z,36.74
2023-02-03T16:22:40.544Z,36.37
2023-02-03T16:25:23.316Z,36.87
2023-02-03T16:28:39.948Z,36.44
2023-02-03T16:31:36.697Z,36.45
2023-02-03T16:34:33.551Z,36.87
2023-02-03T16:37:19.396Z,36.07
2023-02-03T16:40:05.705Z,36.05
2023-02-03T16:42:59.810Z,36.59
2023-02-03T16:45:45.965Z,36.00
2023-02-03T16:48:32.360Z,36.58
2023-02-03T16:51:07.300Z,36.60
2023-02-03T16:53:35.184Z,36.92
2023-02-03T16:56:07.257Z,35.96
2023-02-03T16:58:35.109Z,36.67
2023-02-03T17:01:05.781Z,36.41
2023-02-03T17:03:35.799Z,36.48
2023-02-03T17:06:06.897Z,36.75
2023-02-03T17:08:35.346Z,36.70
2023-02-03T17:11:05.952Z,36.67
2023-02-03T17:13:34.122Z,36.93
2023-02-03T17:16:01.870Z,37.18
2023-02-03T17:18:29.544Z,36.75
2023-02-03T17:21:05.865Z,37.84
2023-02-03T17:23:33.589Z,38.28
2023-02-03T17:26:01.417Z,37.86
2023-02-03T17:28:29.286Z,37.38
2023-02-03T17:31:06.020Z,38.00
2023-02-03T17:33:35.324Z,37.79
2023-02-03T17:36:07.973Z,37.92
2023-02-03T17:55:15.864Z,38.86
2023-02-03T17:57:43.689Z,38.87
2023-02-03T18:00:11.921Z,38.87
2023-02-03T18:02:43.527Z,38.89
2023-02-03T18:05:11.473Z,38.89
2023-02-03T18:07:39.042Z,38.95
2023-02-03T18:10:06.778Z,38.67
2023-02-03T18:12:34.519Z,39.00
2023-02-03T18:15:02.249Z,38.88
2023-02-03T18:17:31.095Z,38.70
2023-02-03T18:20:00.898Z,38.99
2023-02-03T18:22:28.787Z,39.04
2023-02-03T18:24:56.424Z,39.42
2023-02-03T18:27:23.963Z,39.47
2023-02-03T18:29:51.566Z,39.79
2023-02-03T18:32:20.250Z,39.58
2023-02-03T18:34:47.999Z,39.41
2023-02-03T18:37:15.781Z,39.76
2023-02-03T18:39:43.339Z,39.47
2023-02-03T18:42:11.226Z,39.17
2023-02-03T18:44:39.910Z,39.11
2023-02-03T18:47:08.081Z,38.78
2023-02-03T18:49:45.399Z,38.52
2023-02-03T18:52:12.906Z,38.89
2023-02-03T18:54:40.461Z,38.48
2023-02-03T18:57:13.230Z,38.33
2023-02-03T18:59:40.797Z,38.51
2023-02-03T19:02:11.252Z,38.33
2023-02-03T19:04:41.008Z,38.47
2023-02-03T19:07:08.577Z,38.45
2023-02-03T19:09:39.944Z,38.05
2023-02-03T19:12:08.716Z,38.22
2023-02-03T19:14:36.680Z,38.90
2023-02-03T19:17:04.870Z,39.07
2023-02-03T19:19:32.354Z,39.99
2023-02-03T19:21:59.983Z,39.97
2023-02-03T19:24:27.582Z,39.50
2023-02-03T19:26:55.623Z,39.87
2023-02-03T19:29:23.117Z,39.43
2023-02-03T19:31:51.020Z,39.50
2023-02-03T19:34:18.889Z,39.90
2023-02-03T19:36:47.414Z,39.43
2023-02-03T19:39:15.549Z,39.93
2023-02-03T19:41:43.156Z,40.16
2023-02-03T19:44:10.721Z,40.01
2023-02-03T19:46:38.497Z,39.67
2023-02-03T19:49:13.509Z,40.35
2023-02-03T19:51:42.795Z,39.80
2023-02-03T19:54:15.820Z,40.21
2023-02-03T19:56:44.985Z,39.47
2023-02-03T19:59:12.978Z,39.52
2023-02-03T20:01:40.650Z,39.72
2023-02-03T20:04:08.281Z,39.64
2023-02-03T20:06:36.329Z,39.86
2023-02-03T20:09:06.397Z,39.25
2023-02-03T20:11:38.391Z,39.47
2023-02-03T20:14:14.140Z,39.25
2023-02-03T20:16:43.052Z,39.16
2023-02-03T20:19:10.844Z,39.17
2023-02-03T20:21:38.539Z,39.70
2023-02-03T20:24:06.015Z,39.49
2023-02-03T20:26:33.594Z,39.80
2023-02-03T20:29:01.156Z,39.45
2023-02-03T20:31:29.006Z,39.60
2023-02-03T20:33:56.676Z,39.40
2023-02-03T20:36:24.334Z,39.55
2023-02-03T20:38:52.157Z,39.21
2023-02-03T20:41:19.983Z,39.42
2023-02-03T20:43:48.297Z,39.20
2023-02-03T20:46:18.998Z,39.42
2023-02-03T20:48:46.596Z,39.22
2023-02-03T20:51:16.128Z,39.45
2023-02-03T20:53:44.640Z,39.31
2023-02-03T20:56:18.446Z,40.21
2023-02-03T20:58:46.204Z,39.72
2023-02-03T21:01:22.116Z,40.26
2023-02-03T21:04:07.971Z,40.12
2023-02-03T21:06:36.167Z,40.64
2023-02-03T21:09:18.432Z,41.12
2023-02-03T21:11:46.077Z,40.54
2023-02-03T21:14:23.986Z,41.03
2023-02-03T21:16:54.325Z,40.14
2023-02-03T21:19:33.829Z,40.09
2023-02-03T21:22:17.697Z,40.78
2023-02-03T21:24:59.189Z,41.52
2023-02-03T21:27:32.528Z,40.94
2023-02-03T21:30:02.613Z,40.58
2023-02-03T21:32:40.472Z,41.42
2023-02-03T21:35:31.195Z,41.38
2023-02-03T21:38:04.304Z,41.59
2023-02-03T21:40:34.674Z,42.02
2023-02-03T21:43:03.536Z,41.75
2023-02-03T21:45:42.358Z,42.60
2023-02-03T21:48:29.675Z,43.11
2023-02-03T21:51:01.546Z,42.98
2023-02-03T21:53:33.409Z,42.60
2023-02-03T21:56:25.178Z,42.94
2023-02-03T21:58:57.690Z,41.70
2023-02-03T22:01:27.010Z,41.74
2023-02-03T22:03:56.206Z,42.00
2023-02-03T22:06:26.538Z,41.58
2023-02-03T22:08:56.888Z,41.45
2023-02-03T22:11:27.878Z,41.29
2023-02-03T22:13:55.945Z,41.45
2023-02-03T22:16:24.144Z,40.88
2023-02-03T22:18:52.395Z,41.32
2023-02-03T22:21:20.058Z,41.57
2023-02-03T22:23:48.456Z,41.47
2023-02-03T22:26:17.607Z,41.29
2023-02-03T22:28:45.534Z,41.43
2023-02-03T22:31:13.838Z,41.35
2023-02-03T22:33:42.393Z,41.56
2023-02-03T22:36:11.037Z,41.04
2023-02-03T22:38:40.159Z,41.32
2023-02-03T22:41:09.538Z,41.62
2023-02-03T22:43:37.156Z,40.96
2023-02-03T22:46:07.070Z,40.58
2023-02-03T22:48:34.784Z,40.63
2023-02-03T22:51:02.315Z,40.43
2023-02-03T22:53:29.940Z,41.58
2023-02-03T22:55:57.499Z,41.27
2023-02-03T22:58:25.018Z,41.11
2023-02-03T23:00:52.480Z,41.83
2023-02-03T23:03:20.062Z,42.08
2023-02-03T23:05:47.618Z,42.32
2023-02-03T23:08:15.114Z,41.83
2023-02-03T23:10:42.620Z,42.40
2023-02-03T23:13:10.186Z,41.83
2023-02-03T23:15:37.989Z,42.36
2023-02-03T23:18:06.025Z,42.05
2023-02-03T23:20:33.879Z,41.47
2023-02-03T23:23:01.373Z,41.76
2023-02-03T23:25:28.927Z,41.38
2023-02-03T23:27:56.610Z,41.40
2023-02-03T23:30:24.271Z,41.63
2023-02-03T23:32:51.759Z,41.63
2023-02-03T23:35:37.692Z,41.12
2023-02-03T23:38:05.257Z,41.00
2023-02-03T23:40:33.180Z,41.26
2023-02-03T23:43:00.918Z,41.34
2023-02-03T23:45:28.521Z,40.97
2023-02-03T23:47:56.110Z,40.24
2023-02-03T23:50:23.790Z,40.36
2023-02-03T23:52:51.349Z,40.22
2023-02-03T23:55:21.327Z,40.67
2023-02-03T23:57:48.908Z,40.18
